Time;durP1;ratioP1;P1;durP2;ratioP2;P2;SDS_P1;SDS_P2;PMS_P1;PMS_P2;Temp;Humidity;BMP_temperature;BMP_pressure;BME280_temperature;BME280_humidity;BME280_pressure;Samples;Min_cycle;Max_cycle;Signal;HPM_P1;HPM_P2
2022/05/17 00:00:11;;;;;;;7.45;4.60;;;17.90;99.90;;;;;;5025598;28;20060;-75
2022/05/17 00:02:36;;;;;;;9.98;6.18;;;17.80;99.90;;;;;;5023840;28;20030;-74
2022/05/17 00:05:04;;;;;;;9.05;4.90;;;17.80;99.90;;;;;;5024105;28;20048;-75
2022/05/17 00:07:29;;;;;;;9.27;5.05;;;17.80;99.90;;;;;;5006478;28;20457;-74
2022/05/17 00:09:55;;;;;;;10.63;5.30;;;17.70;99.90;;;;;;5023023;28;20098;-75
2022/05/17 00:12:21;;;;;;;13.50;5.80;;;17.70;99.90;;;;;;5008513;28;20507;-75
2022/05/17 00:14:46;;;;;;;13.43;5.60;;;17.70;99.90;;;;;;5009766;28;20038;-75
2022/05/17 00:17:12;;;;;;;9.68;5.90;;;17.70;99.90;;;;;;5026217;28;20029;-74
2022/05/17 00:19:38;;;;;;;10.50;5.50;;;17.70;99.90;;;;;;5010310;28;20511;-74
2022/05/17 00:22:04;;;;;;;8.23;5.82;;;17.60;99.90;;;;;;5007400;28;20029;-73
2022/05/17 00:24:29;;;;;;;13.25;6.18;;;17.50;99.90;;;;;;4999276;28;20026;-74
2022/05/17 00:26:55;;;;;;;11.23;5.47;;;17.40;99.90;;;;;;5022809;28;20025;-73
2022/05/17 00:29:22;;;;;;;11.23;6.32;;;17.40;99.90;;;;;;5026342;28;20087;-73
2022/05/17 00:31:48;;;;;;;9.48;5.80;;;17.30;99.90;;;;;;5000280;28;20188;-74
2022/05/17 00:34:13;;;;;;;14.38;6.70;;;17.20;99.90;;;;;;5025589;28;20551;-73
2022/05/17 00:36:40;;;;;;;11.02;6.18;;;17.10;99.90;;;;;;4990502;28;20120;-74
2022/05/17 00:39:06;;;;;;;10.48;6.13;;;17.10;99.90;;;;;;5022924;28;20535;-74
2022/05/17 00:41:32;;;;;;;8.50;6.20;;;17.00;99.90;;;;;;5006415;28;20649;-74
2022/05/17 00:47:14;;;;;;;11.05;6.22;;;16.90;99.90;;;;;;5025039;28;20048;-74
2022/05/17 00:49:56;;;;;;;11.25;6.20;;;16.90;99.90;;;;;;4964983;28;20045;-74
2022/05/17 00:52:30;;;;;;;12.40;6.82;;;16.90;99.90;;;;;;5007094;28;20600;-74
2022/05/17 00:55:06;;;;;;;13.00;7.53;;;16.90;99.90;;;;;;5006794;28;20137;-74
2022/05/17 00:57:41;;;;;;;10.55;6.60;;;16.90;99.90;;;;;;5008820;28;20104;-73
2022/05/17 01:00:13;;;;;;;12.82;6.82;;;16.90;99.90;;;;;;5009406;28;20026;-75
2022/05/17 01:02:41;;;;;;;15.20;8.65;;;16.90;99.90;;;;;;5044018;28;20022;-72
2022/05/17 01:05:09;;;;;;;14.77;8.05;;;16.90;99.90;;;;;;5028997;28;20032;-75
2022/05/17 01:07:48;;;;;;;12.85;8.85;;;16.90;99.90;;;;;;5027735;28;20045;-75
2022/05/17 01:10:14;;;;;;;12.23;8.35;;;16.90;99.90;;;;;;5028819;28;20048;-74
2022/05/17 01:12:40;;;;;;;12.10;7.78;;;16.70;99.90;;;;;;5027168;28;20078;-75
2022/05/17 01:15:08;;;;;;;13.43;8.50;;;16.70;99.90;;;;;;5011288;28;20957;-74
2022/05/17 01:17:37;;;;;;;11.65;7.28;;;16.70;99.90;;;;;;5004162;28;20489;-74
2022/05/17 01:20:07;;;;;;;15.70;8.43;;;16.70;99.90;;;;;;5006377;28;20885;-74
2022/05/17 01:22:33;;;;;;;16.00;7.70;;;16.70;99.90;;;;;;5002280;28;20041;-74
2022/05/17 01:24:58;;;;;;;17.35;8.80;;;16.70;99.90;;;;;;5004002;28;20038;-74
2022/05/17 01:27:34;;;;;;;13.43;9.13;;;16.70;99.90;;;;;;5002893;28;20096;-74
2022/05/17 01:29:59;;;;;;;11.95;8.38;;;16.60;99.90;;;;;;4986003;28;20494;-74
2022/05/17 01:32:25;;;;;;;13.30;8.35;;;16.60;99.90;;;;;;5019122;28;20033;-74
2022/05/17 01:34:51;;;;;;;13.07;8.13;;;16.60;99.90;;;;;;5006110;28;20034;-74
2022/05/17 01:37:17;;;;;;;14.90;9.20;;;16.60;99.90;;;;;;5019446;28;20113;-74
2022/05/17 01:39:44;;;;;;;14.30;8.73;;;16.60;99.90;;;;;;4983322;28;20081;-74
2022/05/17 01:42:12;;;;;;;14.27;9.02;;;16.70;99.90;;;;;;5000819;28;20053;-73
2022/05/17 01:44:43;;;;;;;14.57;9.20;;;16.70;99.90;;;;;;5005731;28;20100;-74
2022/05/17 01:47:10;;;;;;;13.68;9.23;;;16.70;99.90;;;;;;5005711;28;20112;-73
2022/05/17 01:49:36;;;;;;;14.48;9.23;;;16.70;99.90;;;;;;5005018;28;20436;-74
2022/05/17 01:52:02;;;;;;;10.32;7.68;;;16.70;99.90;;;;;;4985775;28;20029;-73
2022/05/17 01:54:27;;;;;;;19.35;9.43;;;16.70;99.90;;;;;;5003847;28;20504;-74
2022/05/17 01:56:53;;;;;;;12.55;8.30;;;16.70;99.90;;;;;;5001121;28;20179;-73
2022/05/17 01:59:19;;;;;;;15.95;9.48;;;16.70;99.90;;;;;;5003249;28;20045;-74
2022/05/17 02:01:44;;;;;;;14.05;9.23;;;16.70;99.90;;;;;;5002481;28;20061;-74
2022/05/17 02:04:11;;;;;;;15.43;11.50;;;16.70;99.90;;;;;;5003093;28;20068;-73
2022/05/17 02:06:36;;;;;;;14.13;9.52;;;16.70;99.90;;;;;;5001419;28;20033;-74
2022/05/17 02:09:03;;;;;;;16.25;10.35;;;16.60;99.90;;;;;;5002756;28;20034;-74
2022/05/17 02:11:28;;;;;;;16.38;10.88;;;16.60;99.90;;;;;;5005000;28;20030;-74
2022/05/17 02:13:54;;;;;;;15.73;10.30;;;16.50;99.90;;;;;;5005093;28;20046;-74
2022/05/17 02:16:20;;;;;;;14.23;9.55;;;16.50;99.90;;;;;;4984554;28;20041;-74
2022/05/17 02:18:46;;;;;;;17.45;11.13;;;16.60;99.90;;;;;;5005090;28;20034;-74
2022/05/17 02:21:11;;;;;;;15.63;11.00;;;16.60;99.90;;;;;;4986723;28;20064;-73
2022/05/17 02:23:37;;;;;;;16.45;10.80;;;16.70;99.90;;;;;;5004899;28;20036;-74
2022/05/17 02:26:02;;;;;;;18.45;10.27;;;16.70;99.90;;;;;;5001408;28;20089;-74
2022/05/17 02:28:29;;;;;;;12.30;8.93;;;16.60;99.90;;;;;;5001765;28;20398;-74
2022/05/17 02:30:55;;;;;;;17.63;10.40;;;16.50;99.90;;;;;;5004641;28;20088;-74
2022/05/17 02:33:20;;;;;;;16.95;11.38;;;16.50;99.90;;;;;;5010497;28;20034;-74
2022/05/17 02:35:46;;;;;;;16.35;9.90;;;16.40;99.90;;;;;;5006525;28;20373;-74
2022/05/17 02:38:12;;;;;;;17.40;11.13;;;16.40;99.90;;;;;;5008569;28;20839;-73
2022/05/17 02:40:37;;;;;;;17.50;12.10;;;16.30;99.90;;;;;;5005725;28;20066;-74
2022/05/17 02:43:04;;;;;;;19.13;11.35;;;16.30;99.90;;;;;;5008737;28;20128;-74
2022/05/17 02:45:30;;;;;;;20.95;11.80;;;16.20;99.90;;;;;;5008494;28;20064;-74
2022/05/17 02:47:56;;;;;;;17.00;11.95;;;16.10;99.90;;;;;;5005828;28;20030;-73
2022/05/17 02:50:22;;;;;;;18.67;11.77;;;16.10;99.90;;;;;;5006213;28;20077;-74
2022/05/17 02:52:48;;;;;;;17.25;11.30;;;16.10;99.90;;;;;;5009864;28;20493;-74
2022/05/17 02:55:14;;;;;;;17.05;12.40;;;16.10;99.90;;;;;;5004708;28;20030;-74
2022/05/17 02:57:41;;;;;;;17.70;11.40;;;16.10;99.90;;;;;;5007757;28;20029;-74
2022/05/17 03:00:13;;;;;;;15.65;12.07;;;16.10;99.90;;;;;;5005601;28;20030;-74
2022/05/17 03:02:38;;;;;;;17.90;11.50;;;16.10;99.90;;;;;;5017284;28;20029;-74
2022/05/17 03:05:04;;;;;;;15.75;11.32;;;16.10;99.90;;;;;;5002724;28;20397;-73
2022/05/17 03:07:31;;;;;;;16.75;12.20;;;16.10;99.90;;;;;;5001183;28;20034;-73
2022/05/17 03:09:57;;;;;;;16.45;11.02;;;16.10;99.90;;;;;;5007784;28;20026;-74
2022/05/17 03:12:23;;;;;;;16.95;11.68;;;16.10;99.90;;;;;;5007441;28;20030;-74
2022/05/17 03:14:48;;;;;;;16.38;11.18;;;16.10;99.90;;;;;;5006013;28;20070;-74
2022/05/17 03:17:16;;;;;;;16.73;11.05;;;16.00;99.90;;;;;;5000717;28;20045;-74
2022/05/17 03:19:42;;;;;;;19.52;12.00;;;16.00;99.90;;;;;;5006201;28;20038;-74
2022/05/17 03:22:08;;;;;;;18.23;12.80;;;16.00;99.90;;;;;;5004792;28;20058;-74
2022/05/17 03:24:34;;;;;;;17.77;11.48;;;16.00;99.90;;;;;;5005758;28;20109;-74
2022/05/17 03:27:01;;;;;;;18.30;11.40;;;16.00;99.90;;;;;;5005810;28;20025;-74
2022/05/17 03:29:27;;;;;;;17.13;11.85;;;16.00;99.90;;;;;;5004030;28;20030;-74
2022/05/17 03:31:53;;;;;;;17.40;11.75;;;16.00;99.90;;;;;;5005629;28;20037;-74
2022/05/17 03:34:18;;;;;;;16.92;11.82;;;16.00;99.90;;;;;;5003926;28;20022;-74
2022/05/17 03:36:44;;;;;;;15.23;11.60;;;16.00;99.90;;;;;;5006124;28;20032;-74
2022/05/17 03:39:10;;;;;;;16.25;11.88;;;15.90;99.90;;;;;;5004245;28;20049;-74
2022/05/17 03:41:36;;;;;;;15.80;11.45;;;15.90;99.90;;;;;;5004206;28;20497;-73
2022/05/17 03:44:02;;;;;;;17.25;12.38;;;15.90;99.90;;;;;;5005553;28;20068;-74
2022/05/17 03:46:28;;;;;;;19.67;11.88;;;15.90;99.90;;;;;;4985858;28;20037;-75
2022/05/17 03:48:53;;;;;;;16.35;11.57;;;15.90;99.90;;;;;;5010662;28;20025;-74
2022/05/17 03:51:20;;;;;;;19.02;11.73;;;15.80;99.90;;;;;;5025064;28;20026;-74
2022/05/17 03:53:48;;;;;;;15.98;12.23;;;15.90;99.90;;;;;;5007552;28;20021;-75
2022/05/17 03:56:16;;;;;;;17.20;12.63;;;15.80;99.90;;;;;;5005747;28;20044;-75
2022/05/17 03:58:42;;;;;;;18.55;12.93;;;15.90;99.90;;;;;;5020256;28;20045;-74
2022/05/17 04:01:09;;;;;;;18.30;13.07;;;15.90;99.90;;;;;;4998570;28;20573;-75
2022/05/17 04:03:35;;;;;;;16.20;12.10;;;15.90;99.90;;;;;;5007810;28;20037;-74
2022/05/17 04:06:02;;;;;;;20.63;13.25;;;15.90;99.90;;;;;;4991785;28;20091;-73
2022/05/17 04:08:28;;;;;;;19.40;12.13;;;16.00;99.90;;;;;;4990047;28;20021;-73
2022/05/17 04:10:55;;;;;;;18.30;12.52;;;16.00;99.90;;;;;;5006500;28;20156;-74
2022/05/17 04:13:21;;;;;;;19.98;12.63;;;16.00;99.90;;;;;;5005807;28;20029;-74
2022/05/17 04:15:46;;;;;;;19.00;13.75;;;16.00;99.90;;;;;;5024959;28;20041;-74
2022/05/17 04:18:12;;;;;;;18.13;12.73;;;16.00;99.90;;;;;;5023650;28;20065;-74
2022/05/17 04:20:38;;;;;;;15.80;12.48;;;16.00;99.90;;;;;;5011251;28;20037;-73
2022/05/17 04:23:03;;;;;;;18.98;14.00;;;16.00;99.90;;;;;;5026663;28;20049;-74
2022/05/17 04:25:29;;;;;;;21.92;15.18;;;16.00;99.90;;;;;;5007699;28;20033;-74
2022/05/17 04:27:56;;;;;;;20.45;14.77;;;15.90;99.90;;;;;;5020609;28;20548;-74
2022/05/17 04:30:22;;;;;;;23.02;15.18;;;15.80;99.90;;;;;;5021497;28;20033;-74
2022/05/17 04:32:49;;;;;;;22.45;15.18;;;15.80;99.90;;;;;;4990520;28;20021;-75
2022/05/17 04:35:17;;;;;;;23.73;15.43;;;15.80;99.90;;;;;;5017832;28;20049;-73
2022/05/17 04:37:43;;;;;;;21.58;15.02;;;15.80;99.90;;;;;;5009189;28;20087;-73
2022/05/17 04:40:13;;;;;;;25.98;15.65;;;15.80;99.90;;;;;;5010432;28;20548;-74
2022/05/17 04:42:40;;;;;;;21.35;14.75;;;15.80;99.90;;;;;;5019757;28;20029;-74
2022/05/17 04:45:08;;;;;;;19.60;14.48;;;15.80;99.90;;;;;;5018164;28;20457;-74
2022/05/17 04:47:34;;;;;;;17.13;13.80;;;15.80;99.90;;;;;;5003278;28;20049;-73
2022/05/17 04:50:00;;;;;;;20.95;13.98;;;15.80;99.90;;;;;;4999725;28;20121;-74
2022/05/17 04:52:26;;;;;;;18.50;14.25;;;15.90;99.90;;;;;;5003559;28;20026;-73
2022/05/17 04:54:53;;;;;;;25.08;17.95;;;15.80;99.90;;;;;;4997844;28;21582;-73
2022/05/17 04:57:18;;;;;;;22.00;15.73;;;15.80;99.90;;;;;;4993617;28;20049;-73
2022/05/17 04:59:44;;;;;;;24.48;17.42;;;15.80;99.90;;;;;;4995327;28;20073;-74
2022/05/17 05:02:10;;;;;;;23.75;15.43;;;15.90;99.90;;;;;;4994180;28;20027;-73
2022/05/17 05:04:38;;;;;;;21.25;14.75;;;15.90;99.90;;;;;;5013047;28;20515;-73
2022/05/17 05:07:05;;;;;;;20.20;14.30;;;15.90;99.90;;;;;;4999430;28;20517;-73
2022/05/17 05:09:31;;;;;;;20.77;13.77;;;15.90;99.90;;;;;;5002910;28;20032;-73
2022/05/17 05:11:57;;;;;;;22.77;14.88;;;15.90;99.90;;;;;;5004223;28;20045;-73
2022/05/17 05:14:23;;;;;;;19.23;13.63;;;16.00;99.90;;;;;;5002394;28;20125;-73
2022/05/17 05:16:48;;;;;;;16.65;12.88;;;16.00;99.90;;;;;;5001555;28;21365;-72
2022/05/17 05:19:14;;;;;;;19.10;13.52;;;15.90;99.90;;;;;;5001808;28;20064;-73
2022/05/17 05:21:40;;;;;;;17.02;12.50;;;16.00;99.90;;;;;;4998157;28;20038;-73
2022/05/17 05:24:07;;;;;;;18.70;13.45;;;16.00;99.90;;;;;;5002411;28;20127;-74
2022/05/17 05:26:33;;;;;;;15.85;12.27;;;16.00;99.90;;;;;;5001340;28;20076;-76
2022/05/17 05:28:59;;;;;;;22.52;16.25;;;16.00;99.90;;;;;;5001242;28;20501;-73
2022/05/17 05:31:25;;;;;;;21.40;13.00;;;16.00;99.90;;;;;;5000342;28;20022;-73
2022/05/17 05:33:51;;;;;;;18.70;13.98;;;16.00;99.90;;;;;;5003560;28;20036;-73
2022/05/17 05:36:16;;;;;;;20.17;13.65;;;16.00;99.90;;;;;;4995341;28;20057;-74
2022/05/17 05:38:42;;;;;;;21.23;14.98;;;16.00;99.90;;;;;;5002470;28;20034;-74
2022/05/17 05:41:12;;;;;;;19.90;14.55;;;16.00;99.90;;;;;;4996171;28;20292;-72
2022/05/17 05:43:39;;;;;;;19.20;13.88;;;16.00;99.90;;;;;;4992701;28;20034;-73
2022/05/17 05:46:05;;;;;;;16.42;12.65;;;16.00;99.90;;;;;;4997779;28;20034;-73
2022/05/17 05:48:31;;;;;;;17.55;13.02;;;16.00;99.90;;;;;;5002988;28;20040;-74
2022/05/17 05:50:57;;;;;;;18.83;13.32;;;16.00;99.90;;;;;;5019034;28;20049;-74
2022/05/17 05:53:23;;;;;;;19.05;14.52;;;16.10;99.90;;;;;;5002389;28;20113;-74
2022/05/17 05:55:57;;;;;;;23.02;15.98;;;16.10;99.90;;;;;;4997040;28;20029;-74
2022/05/17 05:58:25;;;;;;;23.00;15.88;;;16.10;99.90;;;;;;5002573;28;20483;-73
2022/05/17 06:00:50;;;;;;;21.77;15.10;;;16.10;99.90;;;;;;5023279;28;20120;-73
2022/05/17 06:03:16;;;;;;;24.88;15.52;;;16.00;99.90;;;;;;5029644;23;20065;-82
2022/05/17 06:05:42;;;;;;;23.02;15.98;;;16.00;99.90;;;;;;5005771;28;20412;-79
2022/05/17 06:08:13;;;;;;;21.92;16.10;;;16.00;99.90;;;;;;5003121;28;20389;-81
2022/05/17 06:10:39;;;;;;;;;;;16.00;99.90;;;;;;5018508;28;20021;-80
2022/05/17 06:13:05;;;;;;;23.55;14.95;;;16.00;99.90;;;;;;5020882;28;19919;-82
2022/05/17 06:15:31;;;;;;;23.23;16.63;;;16.00;99.90;;;;;;5004118;28;20497;-80
2022/05/17 06:18:01;;;;;;;24.58;16.90;;;16.00;99.90;;;;;;5021333;28;20033;-80
2022/05/17 06:20:26;;;;;;;28.35;17.35;;;16.00;99.90;;;;;;5022934;28;20056;-79
2022/05/17 06:22:54;;;;;;;28.02;18.27;;;16.00;99.90;;;;;;5021026;28;20071;-81
2022/05/17 06:25:21;;;;;;;29.45;18.02;;;16.00;99.90;;;;;;5016157;28;20029;-79
2022/05/17 06:27:47;;;;;;;29.30;18.95;;;16.00;99.90;;;;;;5022762;28;20056;-79
2022/05/17 06:30:15;;;;;;;27.00;18.33;;;16.00;99.90;;;;;;5016582;28;20030;-82
2022/05/17 06:32:42;;;;;;;26.05;18.48;;;16.00;99.90;;;;;;5005395;28;20040;-80
2022/05/17 06:35:09;;;;;;;27.08;18.65;;;16.00;99.90;;;;;;5020455;28;20037;-81
2022/05/17 06:37:34;;;;;;;32.53;19.75;;;16.00;99.90;;;;;;5019173;28;20037;-82
2022/05/17 06:40:00;;;;;;;23.75;17.48;;;16.00;99.90;;;;;;5024923;28;20021;-81
2022/05/17 06:42:30;;;;;;;25.88;17.98;;;16.00;99.90;;;;;;5022034;28;20407;-81
2022/05/17 06:44:56;;;;;;;26.40;17.20;;;16.00;99.90;;;;;;5022200;28;20052;-82
2022/05/17 06:47:22;;;;;;;22.70;17.00;;;16.00;99.90;;;;;;5019319;28;20033;-79
2022/05/17 06:49:48;;;;;;;26.02;17.52;;;16.00;99.90;;;;;;5005398;28;20022;-81
2022/05/17 06:52:17;;;;;;;24.58;17.27;;;16.10;99.90;;;;;;5000932;28;20133;-80
2022/05/17 06:54:58;;;;;;;21.63;15.13;;;16.10;99.90;;;;;;5020158;28;20022;-82
2022/05/17 06:57:48;;;;;;;21.55;14.68;;;16.10;99.90;;;;;;4998579;28;20429;-80
2022/05/17 07:00:14;;;;;;;25.02;15.70;;;16.10;99.90;;;;;;5002862;28;20018;-81
2022/05/17 07:02:40;;;;;;;22.08;15.20;;;16.20;99.90;;;;;;5018999;28;20026;-82
2022/05/17 07:05:08;;;;;;;23.20;16.23;;;16.20;99.90;;;;;;5005352;28;20022;-81
2022/05/17 07:07:34;;;;;;;24.02;16.85;;;16.20;99.90;;;;;;5002879;28;20080;-79
2022/05/17 07:15:30;;;;;;;26.33;16.40;;;16.20;99.90;;;;;;5020718;28;20027;-80
2022/05/17 07:18:00;;;;;;;29.45;16.65;;;16.30;99.90;;;;;;5004709;28;20025;-79
2022/05/17 07:20:27;;;;;;;28.60;18.15;;;16.30;99.90;;;;;;5009236;28;20412;-80
2022/05/17 07:22:52;;;;;;;28.88;16.67;;;16.40;99.90;;;;;;5009203;28;20079;-80
2022/05/17 07:25:18;;;;;;;23.55;16.58;;;16.50;99.90;;;;;;5006505;28;20038;-80
2022/05/17 07:27:45;;;;;;;30.13;17.10;;;16.60;99.90;;;;;;5009394;28;20030;-80
2022/05/17 07:30:11;;;;;;;28.63;18.13;;;16.70;99.90;;;;;;5010159;28;20036;-81
2022/05/17 07:32:37;;;;;;;29.63;18.48;;;16.90;99.90;;;;;;5009739;28;20060;-80
2022/05/17 07:35:04;;;;;;;30.63;19.13;;;16.90;99.90;;;;;;5023839;28;20025;-80
2022/05/17 07:37:30;;;;;;;27.30;18.33;;;17.10;99.90;;;;;;5023420;28;20061;-81
2022/05/17 07:39:56;;;;;;;28.70;19.02;;;17.10;99.90;;;;;;5006692;28;20068;-81
2022/05/17 07:42:21;;;;;;;31.73;19.33;;;17.20;99.90;;;;;;5008802;28;20097;-81
2022/05/17 07:44:47;;;;;;;25.27;17.58;;;17.20;99.90;;;;;;5008221;28;20048;-81
2022/05/17 07:47:12;;;;;;;26.23;16.40;;;17.30;99.90;;;;;;5023553;28;20401;-80
2022/05/17 07:49:38;;;;;;;31.10;19.20;;;17.30;99.90;;;;;;5005848;28;20053;-80
2022/05/17 07:52:05;;;;;;;33.28;18.92;;;17.40;99.90;;;;;;5024431;28;20055;-80
2022/05/17 07:54:31;;;;;;;28.48;19.08;;;17.40;99.90;;;;;;5024185;28;20029;-80
2022/05/17 07:56:58;;;;;;;24.98;16.50;;;17.50;99.90;;;;;;5024381;28;20033;-81
2022/05/17 07:59:24;;;;;;;28.92;18.45;;;17.60;99.90;;;;;;5011459;28;20044;-81
2022/05/17 08:01:50;;;;;;;24.13;16.35;;;17.70;99.90;;;;;;5025956;28;20018;-81
2022/05/17 08:04:15;;;;;;;20.95;14.20;;;17.70;99.90;;;;;;5008239;28;20072;-81
2022/05/17 08:06:41;;;;;;;21.00;14.40;;;17.70;99.90;;;;;;5009021;28;20053;-80
2022/05/17 08:09:07;;;;;;;17.15;12.40;;;17.70;99.90;;;;;;5026969;28;20053;-80
2022/05/17 08:11:33;;;;;;;22.20;14.85;;;17.70;99.90;;;;;;5009714;28;20061;-77
2022/05/17 08:13:59;;;;;;;21.25;14.60;;;17.80;99.90;;;;;;5005978;28;20409;-81
2022/05/17 08:16:25;;;;;;;18.75;13.88;;;17.80;99.90;;;;;;5026954;28;20034;-81
2022/05/17 08:18:52;;;;;;;17.15;12.55;;;17.80;99.90;;;;;;5026066;28;20025;-81
2022/05/17 08:21:17;;;;;;;18.60;13.23;;;17.90;99.90;;;;;;5009822;28;20033;-81
2022/05/17 08:23:43;;;;;;;16.85;12.00;;;17.90;99.90;;;;;;5023118;28;20021;-81
2022/05/17 08:28:56;;;;;;;14.43;10.07;;;18.10;99.90;;;;;;5024325;28;20040;-81
2022/05/17 08:31:23;;;;;;;19.83;12.48;;;18.10;99.90;;;;;;5028206;28;20028;-80
2022/05/17 08:33:49;;;;;;;18.60;12.75;;;18.20;99.90;;;;;;5029862;28;20163;-81
2022/05/17 08:36:15;;;;;;;16.75;11.80;;;18.10;99.90;;;;;;5029337;28;20153;-80
2022/05/17 08:38:44;;;;;;;16.23;10.93;;;18.10;99.90;;;;;;5025123;28;20026;-82
2022/05/17 08:41:24;;;;;;;14.85;11.15;;;18.00;99.90;;;;;;5007285;28;20037;-78
2022/05/17 08:44:04;;;;;;;15.77;11.02;;;18.00;99.90;;;;;;5024655;28;20040;-79
2022/05/17 08:47:02;;;;;;;14.07;9.45;;;18.10;99.90;;;;;;5025735;28;20021;-80
2022/05/17 08:49:39;;;;;;;11.90;8.10;;;18.20;99.90;;;;;;5023524;28;20370;-81
2022/05/17 08:52:13;;;;;;;13.35;8.07;;;18.40;99.90;;;;;;5026166;28;20078;-80
2022/05/17 08:55:10;;;;;;;9.07;6.93;;;18.60;99.90;;;;;;5028942;28;20033;-80
2022/05/17 08:57:46;;;;;;;8.75;6.63;;;19.00;99.90;;;;;;5025633;28;20029;-81
2022/05/17 09:00:18;;;;;;;6.35;5.15;;;19.30;99.90;;;;;;5025330;28;20060;-81
2022/05/17 09:02:50;;;;;;;4.85;4.07;;;19.60;99.90;;;;;;5005635;28;20100;-81
2022/05/17 09:05:28;;;;;;;5.30;4.68;;;19.60;99.90;;;;;;5005592;28;20029;-82
2022/05/17 09:08:11;;;;;;;6.10;4.45;;;19.70;99.90;;;;;;5025743;28;20033;-81
2022/05/17 09:10:52;;;;;;;5.35;4.20;;;19.70;99.90;;;;;;5010143;28;20052;-79
2022/05/17 09:13:20;;;;;;;4.53;4.10;;;19.70;99.90;;;;;;5010066;28;20079;-81
2022/05/17 09:15:46;;;;;;;5.53;3.92;;;19.70;99.90;;;;;;5023601;28;20075;-81
2022/05/17 09:18:16;;;;;;;6.53;4.60;;;19.70;99.90;;;;;;5005942;28;20057;-81
2022/05/17 09:20:43;;;;;;;5.25;3.92;;;19.70;99.90;;;;;;5010883;28;20022;-81
2022/05/17 09:23:11;;;;;;;5.45;4.78;;;19.70;99.90;;;;;;5005871;28;20033;-81
2022/05/17 09:25:58;;;;;;;8.68;5.78;;;19.70;99.90;;;;;;5005703;28;20030;-81
2022/05/17 09:28:42;;;;;;;5.40;4.78;;;19.70;99.90;;;;;;5031968;28;20032;-80
2022/05/17 09:31:11;;;;;;;6.93;5.20;;;19.70;99.90;;;;;;5013901;28;20029;-80
2022/05/17 09:33:40;;;;;;;6.97;5.30;;;19.70;99.90;;;;;;5034894;28;20073;-80
2022/05/17 09:36:08;;;;;;;6.63;5.13;;;19.80;99.90;;;;;;5012679;28;20048;-81
2022/05/17 09:38:37;;;;;;;6.68;4.65;;;19.90;99.90;;;;;;5024633;28;20048;-80
2022/05/17 09:41:11;;;;;;;6.07;5.07;;;20.10;99.90;;;;;;5022420;28;20053;-81
2022/05/17 09:43:39;;;;;;;5.88;4.53;;;20.30;99.90;;;;;;5006081;28;20029;-79
2022/05/17 09:46:11;;;;;;;5.68;4.57;;;20.40;99.90;;;;;;5006133;28;20066;-81
2022/05/17 09:54:48;;;;;;;6.18;4.97;;;20.70;99.90;;;;;;5023980;28;20021;-80
2022/05/17 09:57:29;;;;;;;7.18;4.80;;;20.60;99.90;;;;;;5005757;28;20056;-79
2022/05/17 10:00:13;;;;;;;4.55;4.03;;;20.60;99.90;;;;;;5021239;28;20037;-80
2022/05/17 10:02:57;;;;;;;5.68;4.32;;;20.80;99.90;;;;;;5004047;28;20041;-79
2022/05/17 10:05:40;;;;;;;5.75;4.38;;;20.90;99.90;;;;;;5005155;28;20030;-79
2022/05/17 10:08:14;;;;;;;5.47;4.40;;;21.00;99.90;;;;;;5022677;28;20459;-80
2022/05/17 10:11:00;;;;;;;4.25;3.85;;;20.90;99.90;;;;;;5022846;28;20041;-78
2022/05/17 10:13:28;;;;;;;6.45;4.88;;;20.70;99.90;;;;;;5021809;28;20033;-79
2022/05/17 10:16:12;;;;;;;5.88;4.88;;;20.50;99.90;;;;;;5024459;28;20082;-80
2022/05/17 10:18:49;;;;;;;4.97;4.03;;;20.20;99.90;;;;;;5033575;28;20041;-81
2022/05/17 10:21:21;;;;;;;5.15;4.40;;;20.10;99.90;;;;;;5006681;28;20112;-81
2022/05/17 10:24:19;;;;;;;6.20;4.20;;;20.20;99.90;;;;;;5021899;28;20048;-80
2022/05/17 10:26:53;;;;;;;5.40;4.55;;;20.30;99.90;;;;;;5022794;28;20075;-81
2022/05/17 10:29:36;;;;;;;5.50;4.55;;;20.30;99.90;;;;;;5022051;28;20454;-80
2022/05/17 10:32:20;;;;;;;5.00;4.20;;;20.30;99.90;;;;;;5014739;28;20038;-81
2022/05/17 10:35:02;;;;;;;7.10;4.55;;;20.30;99.90;;;;;;5034916;28;20017;-78
2022/05/17 10:37:38;;;;;;;6.50;4.68;;;20.30;99.90;;;;;;5025980;28;20030;-81
2022/05/17 10:40:09;;;;;;;5.50;4.30;;;20.30;99.90;;;;;;5022513;28;20037;-80
2022/05/17 10:42:37;;;;;;;4.57;3.80;;;20.10;99.90;;;;;;5022337;28;20043;-80
2022/05/17 10:45:10;;;;;;;4.65;3.70;;;20.10;99.90;;;;;;5022590;28;20030;-79
2022/05/17 10:47:46;;;;;;;4.40;3.30;;;20.00;99.90;;;;;;4996581;28;20053;-80
2022/05/17 10:50:43;;;;;;;4.00;3.60;;;20.00;99.90;;;;;;5023718;28;20084;-80
2022/05/17 10:53:30;;;;;;;4.18;3.67;;;20.00;99.90;;;;;;5010672;28;20056;-80
2022/05/17 10:56:22;;;;;;;4.47;3.58;;;19.90;99.90;;;;;;5021668;28;20041;-81
2022/05/17 10:59:07;;;;;;;4.10;3.30;;;19.80;99.90;;;;;;5011035;28;20520;-80
2022/05/17 11:01:43;;;;;;;3.25;2.95;;;19.80;99.90;;;;;;5028459;28;20033;-80
2022/05/17 11:04:21;;;;;;;4.55;3.67;;;19.70;99.90;;;;;;5026889;28;20038;-80
2022/05/17 11:07:01;;;;;;;4.10;3.15;;;19.60;99.90;;;;;;5010474;28;20025;-82
2022/05/17 11:09:47;;;;;;;5.60;3.25;;;19.60;99.90;;;;;;5008742;28;20034;-80
2022/05/17 11:12:14;;;;;;;3.55;3.20;;;19.40;99.90;;;;;;5013121;28;20116;-79
2022/05/17 11:14:52;;;;;;;5.95;3.30;;;19.40;99.90;;;;;;5029263;28;20073;-82
2022/05/17 11:17:35;;;;;;;4.20;3.80;;;19.40;99.90;;;;;;5028551;28;20026;-80
2022/05/17 11:20:16;;;;;;;4.05;3.45;;;19.40;99.90;;;;;;5008786;28;20045;-80
2022/05/17 11:23:00;;;;;;;5.18;3.55;;;19.40;99.90;;;;;;5027260;28;20029;-80
2022/05/17 11:25:33;;;;;;;3.65;3.28;;;19.30;99.90;;;;;;5025541;28;20071;-79
2022/05/17 11:28:22;;;;;;;4.05;3.40;;;19.30;99.90;;;;;;5027226;28;20033;-80
2022/05/17 11:31:12;;;;;;;4.32;3.75;;;19.40;99.90;;;;;;5039955;28;20056;-82
2022/05/17 11:33:40;;;;;;;4.00;3.60;;;19.40;99.90;;;;;;5034281;28;20030;-80
2022/05/17 11:36:33;;;;;;;3.72;2.95;;;19.40;99.90;;;;;;5015407;28;20069;-80
2022/05/17 11:39:00;;;;;;;3.80;3.30;;;19.50;99.90;;;;;;5012291;28;20052;-82
2022/05/17 11:41:43;;;;;;;4.07;3.13;;;19.60;99.90;;;;;;5013373;28;20044;-81
2022/05/17 11:44:12;;;;;;;4.90;3.40;;;19.60;99.90;;;;;;5008775;28;20061;-80
2022/05/17 11:46:48;;;;;;;5.18;3.40;;;19.60;99.90;;;;;;5025643;28;20389;-81
2022/05/17 11:49:17;;;;;;;3.92;3.53;;;19.60;99.90;;;;;;5009738;28;20283;-79
2022/05/17 11:51:58;;;;;;;4.28;3.70;;;19.60;99.90;;;;;;5010940;28;20031;-81
2022/05/17 11:54:44;;;;;;;4.78;3.85;;;19.60;99.90;;;;;;5011057;28;20030;-83
2022/05/17 11:57:33;;;;;;;4.85;3.97;;;19.50;99.90;;;;;;5011082;28;20044;-81
2022/05/17 12:00:06;;;;;;;5.05;4.40;;;19.50;99.90;;;;;;4992307;28;20061;-81
2022/05/17 12:02:51;;;;;;;4.50;3.78;;;19.50;99.90;;;;;;5045276;28;20144;-81
2022/05/17 12:05:45;;;;;;;5.22;4.13;;;19.50;99.90;;;;;;4969415;28;20050;-73
2022/05/17 12:08:44;;;;;;;3.80;3.40;;;19.50;99.90;;;;;;4952538;28;20409;-73
2022/05/17 12:11:13;;;;;;;3.42;3.13;;;19.50;99.90;;;;;;4967350;28;20101;-74
2022/05/17 12:14:21;;;;;;;5.25;3.88;;;19.40;99.90;;;;;;4962453;28;20084;-73
2022/05/17 12:17:02;;;;;;;4.15;3.67;;;19.40;99.90;;;;;;4972665;28;20038;-75
2022/05/17 12:19:52;;;;;;;5.68;3.83;;;19.50;99.90;;;;;;4995144;28;20417;-75
2022/05/17 12:22:24;;;;;;;4.07;3.67;;;19.40;99.90;;;;;;4973000;28;20026;-74
2022/05/17 12:24:54;;;;;;;5.15;4.60;;;19.50;99.90;;;;;;4972145;28;20207;-74
2022/05/17 12:27:31;;;;;;;4.95;4.28;;;19.40;99.90;;;;;;4988936;28;20046;-73
2022/05/17 12:33:07;;;;;;;5.05;3.58;;;19.50;99.90;;;;;;4987574;28;20022;-74
2022/05/17 12:35:34;;;;;;;4.95;3.88;;;19.50;99.90;;;;;;4972580;28;20429;-73
2022/05/17 12:37:59;;;;;;;4.45;3.70;;;19.50;99.90;;;;;;4988509;28;20662;-73
2022/05/17 12:43:31;;;;;;;4.95;3.63;;;19.60;99.90;;;;;;4986787;28;20027;-74
2022/05/17 12:46:14;;;;;;;5.80;4.22;;;19.60;99.90;;;;;;4988861;28;20034;-74
2022/05/17 12:48:42;;;;;;;5.53;4.38;;;19.60;99.90;;;;;;4969988;28;20040;-74
2022/05/17 12:51:09;;;;;;;4.32;3.90;;;19.60;99.90;;;;;;4988098;28;20037;-74
2022/05/17 12:53:42;;;;;;;4.20;3.40;;;19.50;99.90;;;;;;4970783;28;20053;-74
2022/05/17 12:56:36;;;;;;;3.33;2.95;;;19.50;99.90;;;;;;4988447;28;20089;-74
2022/05/17 12:59:05;;;;;;;3.55;2.88;;;19.40;99.90;;;;;;4962026;28;20530;-73
2022/05/17 13:01:43;;;;;;;4.82;3.30;;;19.30;99.90;;;;;;4987595;28;20109;-73
2022/05/17 13:04:12;;;;;;;3.63;3.17;;;19.30;99.90;;;;;;4974762;28;20038;-73
2022/05/17 13:06:50;;;;;;;3.40;2.80;;;19.30;99.90;;;;;;4967646;28;20113;-73
2022/05/17 13:09:23;;;;;;;6.03;3.65;;;19.20;99.90;;;;;;4971707;28;20034;-73
2022/05/17 13:11:50;;;;;;;6.32;4.18;;;19.20;99.90;;;;;;4989152;28;20540;-73
2022/05/17 13:14:30;;;;;;;4.18;3.42;;;19.20;99.90;;;;;;4971937;28;20429;-73